Terminal Aerodrome Forecast
Issued by NWS Cleveland, OH

Home | Current Version | Previous Version | Graphics & Text | Print | Product List | Glossary On
Versions: 1 2 3 4 5 6 7 8 9 10 11 12 13 14 15 16 17 18 19 20 21 22 23 24 25 26 27 28 29 30 31
000
FTUS41 KCLE 131100
TAFCLE
TAF
KCLE 131137Z 1312/1418 20012KT P6SM -SHRA VCTS SCT035 BKN045CB
      TEMPO 1312/1313 24012G22KT 3SM -TSRA BR SCT025 BKN035CB
     FM131500 24012G20KT P6SM BKN035
     FM132000 24014G22KT P6SM SCT040
     FM140100 VRB05KT P6SM SCT035
     FM141400 24007KT P6SM BKN040=

USA.gov is the U.S. government's official web portal to all federal, state and local government web resources and services.